createdAt,value
2023-03-21T00:00:13.020Z,8.3
2023-03-21T00:06:25.908Z,8.3
2023-03-21T00:12:44.255Z,8.3
2023-03-21T00:18:53.457Z,8.3
2023-03-21T00:25:30.495Z,8.2
2023-03-21T00:32:04.922Z,8.2
2023-03-21T00:39:13.709Z,8.1
2023-03-21T00:45:39.258Z,8.1
2023-03-21T00:51:59.462Z,8.1
2023-03-21T00:58:01.412Z,8
2023-03-21T01:04:08.414Z,7.9
2023-03-21T01:10:04.036Z,7.9
2023-03-21T01:16:06.201Z,7.8
2023-03-21T01:22:24.027Z,7.7
2023-03-21T01:27:56.684Z,7.6
2023-03-21T01:45:40.930Z,7.3
2023-03-21T01:51:40.960Z,7.3
2023-03-21T01:57:47.200Z,7.1
2023-03-21T02:03:26.485Z,7.1
2023-03-21T02:09:16.944Z,6.9
2023-03-21T02:15:07.686Z,6.8
2023-03-21T02:26:26.439Z,6.6
2023-03-21T02:32:54.241Z,6.5
2023-03-21T02:39:12.049Z,6.4
2023-03-21T02:45:40.008Z,6.3
2023-03-21T02:52:32.037Z,6.2
2023-03-21T02:59:06.180Z,6.1
2023-03-21T03:04:46.110Z,5.9
2023-03-21T03:10:30.304Z,5.9
2023-03-21T03:17:02.436Z,5.8
2023-03-21T03:22:50.576Z,5.6
2023-03-21T03:34:50.100Z,5.4
2023-03-21T03:40:30.166Z,5.3
2023-03-21T03:46:58.250Z,5.2
2023-03-21T03:53:17.983Z,5.1
2023-03-21T03:59:24.106Z,5.1
2023-03-21T04:05:40.620Z,5
2023-03-21T04:11:46.349Z,4.9
2023-03-21T04:17:46.689Z,4.8
2023-03-21T04:23:28.889Z,4.8
2023-03-21T04:29:37.209Z,4.6
2023-03-21T04:35:55.651Z,4.6
2023-03-21T04:41:48.158Z,4.4
2023-03-21T04:47:40.994Z,4.4
2023-03-21T04:53:31.995Z,4.4
2023-03-21T04:59:24.563Z,4.3
2023-03-21T05:05:18.221Z,4.3
2023-03-21T05:11:13.560Z,4.4
2023-03-21T05:17:06.728Z,4.4
2023-03-21T05:22:58.267Z,4.5
2023-03-21T05:28:50.238Z,4.6
2023-03-21T05:34:44.212Z,4.7
2023-03-21T05:40:21.832Z,4.9
2023-03-21T05:46:15.482Z,5.1
2023-03-21T05:51:53.222Z,5.4
2023-03-21T05:57:45.008Z,5.8
2023-03-21T06:03:37.410Z,6.3
2023-03-21T06:09:30.358Z,6.8
2023-03-21T06:15:22.858Z,7.4
2023-03-21T06:21:15.515Z,8.3
2023-03-21T06:26:37.711Z,9.3
2023-03-21T06:32:14.593Z,10.1
2023-03-21T06:38:06.974Z,11.1
2023-03-21T06:44:00.201Z,12.3
2023-03-21T06:49:53.866Z,14.1
2023-03-21T06:55:15.757Z,11.8
2023-03-21T07:06:48.193Z,21.4
2023-03-21T07:12:25.420Z,21.2
2023-03-21T07:18:18.242Z,21.1
2023-03-21T07:24:11.550Z,21
2023-03-21T07:35:32.212Z,21.7
2023-03-21T07:41:08.913Z,21.5
2023-03-21T07:47:05.974Z,21.9
2023-03-21T07:52:59.494Z,22.5
2023-03-21T07:58:52.216Z,23.3
2023-03-21T08:04:45.681Z,23.9
2023-03-21T08:10:42.265Z,24.4
2023-03-21T08:16:35.548Z,24.9
2023-03-21T08:22:27.570Z,25.9
2023-03-21T08:28:20.687Z,26.3
2023-03-21T08:33:58.555Z,26.5
2023-03-21T08:39:55.217Z,26.6
2023-03-21T08:45:33.737Z,26.8
2023-03-21T08:51:27.023Z,26.9
2023-03-21T08:57:20.792Z,27.1
2023-03-21T09:03:14.706Z,27.4
2023-03-21T09:09:08.907Z,27.7
2023-03-21T09:21:01.601Z,27.9
2023-03-21T09:26:56.668Z,28.2
2023-03-21T09:32:33.263Z,28.5
2023-03-21T09:38:26.801Z,28.9
2023-03-21T09:44:19.718Z,29.4
2023-03-21T09:50:31.536Z,29.6
2023-03-21T09:56:24.178Z,29.8
2023-03-21T10:02:18.186Z,29.9
2023-03-21T10:08:11.972Z,30.4
2023-03-21T10:14:04.913Z,30.9
2023-03-21T10:20:01.141Z,31.9
2023-03-21T10:26:21.485Z,34.1
2023-03-21T10:32:30.804Z,36.3
2023-03-21T10:38:25.703Z,38.1
2023-03-21T10:44:03.615Z,39.3
2023-03-21T10:50:23.055Z,39.9
2023-03-21T10:56:18.234Z,40.6
2023-03-21T11:01:55.401Z,41.5
2023-03-21T11:07:33.352Z,42.6
2023-03-21T11:13:37.322Z,43.3
2023-03-21T11:19:31.967Z,43.9
2023-03-21T11:25:09.923Z,44.4
2023-03-21T11:31:03.679Z,44.8
2023-03-21T11:36:56.478Z,45.4
2023-03-21T11:42:49.290Z,46.6
2023-03-21T11:48:44.043Z,46.4
2023-03-21T11:54:26.503Z,46.4
2023-03-21T12:00:31.875Z,46.6
2023-03-21T12:06:38.582Z,46.6
2023-03-21T12:12:38.668Z,46.5
2023-03-21T12:18:32.900Z,46.3
2023-03-21T12:24:26.938Z,46
2023-03-21T12:30:33.543Z,45.7
2023-03-21T12:36:28.077Z,45.4
2023-03-21T12:42:23.571Z,45.3
2023-03-21T12:48:37.476Z,45.3
2023-03-21T12:54:15.443Z,45.3
2023-03-21T12:59:44.251Z,45.3
2023-03-21T13:05:41.149Z,45.1
2023-03-21T13:11:24.718Z,44.8
2023-03-21T13:17:26.489Z,44.6
2023-03-21T13:23:18.372Z,44.2
2023-03-21T13:29:12.012Z,43.8
2023-03-21T13:35:00.663Z,43.4
2023-03-21T13:40:53.240Z,43.1
2023-03-21T13:47:03.592Z,42.7
2023-03-21T13:53:06.031Z,42.3
2023-03-21T13:58:59.601Z,41.8
2023-03-21T14:05:00.135Z,41.4
2023-03-21T14:11:13.234Z,40.9
2023-03-21T14:17:34.432Z,40.4
2023-03-21T14:23:43.315Z,39.9
2023-03-21T14:30:02.832Z,38.8
2023-03-21T14:35:40.686Z,37.1
2023-03-21T14:41:28.421Z,35.2
2023-03-21T14:47:30.452Z,33.3
2023-03-21T14:53:07.495Z,31.7
2023-03-21T14:58:45.336Z,30.3
2023-03-21T15:04:39.522Z,28.8
2023-03-21T15:10:17.447Z,27.4
2023-03-21T15:16:24.572Z,25.9
2023-03-21T15:22:18.549Z,24.6
2023-03-21T15:28:11.976Z,23.6
2023-03-21T15:33:50.557Z,22.8
2023-03-21T15:39:28.377Z,22
2023-03-21T15:45:08.232Z,21.4
2023-03-21T15:50:47.301Z,20.8
2023-03-21T15:56:27.252Z,20.3
2023-03-21T16:01:34.429Z,19.9
2023-03-21T16:07:27.810Z,19.3
2023-03-21T16:13:21.085Z,18.8
2023-03-21T16:19:13.443Z,18.2
2023-03-21T16:25:06.228Z,17.6
2023-03-21T16:30:58.710Z,16.9
2023-03-21T16:36:52.373Z,16.3
2023-03-21T16:42:29.827Z,15.7
2023-03-21T16:48:08.040Z,15.2
2023-03-21T16:53:45.399Z,14.8
2023-03-21T16:59:24.550Z,14.3
2023-03-21T17:05:20.205Z,13.9
2023-03-21T17:10:56.726Z,13.5
2023-03-21T17:16:49.613Z,13.2
2023-03-21T17:22:30.745Z,12.9
2023-03-21T17:28:22.398Z,12.6
2023-03-21T17:34:15.606Z,12.3
2023-03-21T17:40:09.069Z,12
2023-03-21T17:46:01.144Z,11.8
2023-03-21T17:51:24.005Z,11.6
2023-03-21T17:56:49.372Z,11.4
2023-03-21T18:02:42.618Z,11.2
2023-03-21T18:09:21.395Z,11
2023-03-21T18:15:37.884Z,10.8
2023-03-21T18:21:25.298Z,10.7
2023-03-21T18:27:21.447Z,10.6
2023-03-21T18:35:46.330Z,10.4
2023-03-21T18:41:45.407Z,10.3
2023-03-21T18:48:52.278Z,10.1
2023-03-21T18:55:45.792Z,10
2023-03-21T19:02:50.999Z,9.9
2023-03-21T19:09:10.233Z,9.8
2023-03-21T19:15:36.226Z,9.7
2023-03-21T19:23:06.796Z,9.6
2023-03-21T19:29:36.589Z,9.5
2023-03-21T19:36:11.093Z,9.4
2023-03-21T19:42:12.465Z,9.4
2023-03-21T19:48:27.485Z,9.3
2023-03-21T19:55:44.765Z,9.3
2023-03-21T20:01:55.551Z,9.2
2023-03-21T20:08:11.025Z,9.1
2023-03-21T20:14:39.087Z,9.1
2023-03-21T20:21:04.368Z,9.1
2023-03-21T20:27:36.485Z,9
2023-03-21T20:35:05.011Z,8.9
2023-03-21T20:42:02.586Z,8.9
2023-03-21T20:49:18.326Z,8.8
2023-03-21T20:56:32.238Z,8.8
2023-03-21T21:03:13.420Z,8.8
2023-03-21T21:09:27.264Z,8.7
2023-03-21T21:15:56.693Z,8.7
2023-03-21T21:22:34.737Z,8.6
2023-03-21T21:28:37.283Z,8.6
2023-03-21T21:34:31.063Z,8.6
2023-03-21T21:40:23.534Z,8.6
2023-03-21T21:46:15.732Z,8.6
2023-03-21T21:51:53.657Z,8.6
2023-03-21T21:57:32.598Z,8.5
2023-03-21T22:03:24.246Z,8.5
2023-03-21T22:09:04.794Z,8.4
2023-03-21T22:14:42.945Z,8.4
2023-03-21T22:20:23.128Z,8.4
2023-03-21T22:26:01.526Z,8.4
2023-03-21T22:31:55.771Z,8.3
2023-03-21T22:37:39.811Z,8.3
2023-03-21T22:43:33.638Z,8.3
2023-03-21T22:49:09.985Z,8.1
2023-03-21T22:55:02.264Z,8.1
2023-03-21T23:00:55.451Z,8
2023-03-21T23:06:34.638Z,7.9
2023-03-21T23:12:11.515Z,7.9
2023-03-21T23:23:41.721Z,7.8
2023-03-21T23:35:15.218Z,7.6
2023-03-21T23:41:07.614Z,7.6
2023-03-21T23:46:59.624Z,7.6
2023-03-21T23:52:53.816Z,7.5
2023-03-21T23:58:47.270Z,7.4
